Time;durP1;ratioP1;P1;durP2;ratioP2;P2;SDS_P1;SDS_P2;PMS_P1;PMS_P2;Temp;Humidity;BMP_temperature;BMP_pressure;BME280_temperature;BME280_humidity;BME280_pressure;Samples;Min_cycle;Max_cycle;Signal;HPM_P1;HPM_P2
2022/01/15 00:01:27;;;;;;;7.88;2.67;;;;;;;-148.16;100.00;58328.31;5078504;28;20044;-61
2022/01/15 00:04:13;;;;;;;4.32;2.17;;;;;;;-148.16;100.00;58328.31;5064272;28;20048;-60
2022/01/15 00:06:59;;;;;;;6.20;2.22;;;;;;;-148.16;100.00;58328.31;5092549;28;20479;-61
2022/01/15 00:09:49;;;;;;;4.85;2.28;;;;;;;-148.16;100.00;58328.31;5071975;28;20400;-60
2022/01/15 00:12:40;;;;;;;4.63;2.40;;;;;;;-148.16;100.00;58328.31;5072077;28;20049;-61
2022/01/15 00:15:40;;;;;;;4.53;2.33;;;;;;;-148.16;100.00;58328.31;5062109;28;20040;-61
2022/01/15 00:18:39;;;;;;;4.88;2.45;;;;;;;-148.16;100.00;58328.31;5049002;28;20052;-60
2022/01/15 00:21:26;;;;;;;6.55;2.30;;;;;;;-148.16;100.00;58328.31;5071621;28;20037;-60
2022/01/15 00:24:15;;;;;;;6.53;2.20;;;;;;;-148.16;100.00;58328.31;5062720;28;20049;-61
2022/01/15 00:27:00;;;;;;;5.38;2.53;;;;;;;-148.16;100.00;58328.31;5071933;28;20471;-60
2022/01/15 00:29:47;;;;;;;4.40;2.03;;;;;;;-148.16;100.00;58328.31;5071649;28;20072;-60
2022/01/15 00:32:33;;;;;;;4.32;2.33;;;;;;;-148.16;100.00;58328.31;5056671;28;20041;-61
2022/01/15 00:35:21;;;;;;;3.40;1.90;;;;;;;-148.16;100.00;58328.31;5071535;28;20523;-62
2022/01/15 00:38:06;;;;;;;3.83;1.83;;;;;;;-148.16;100.00;58328.31;5071608;28;20484;-62
2022/01/15 00:40:52;;;;;;;3.28;1.60;;;;;;;-148.16;100.00;58328.31;5071327;28;20399;-62
2022/01/15 00:43:38;;;;;;;4.88;1.90;;;;;;;-148.16;100.00;58328.31;5090903;28;20055;-61
2022/01/15 00:46:24;;;;;;;4.10;2.20;;;;;;;-148.16;100.00;58328.31;5091535;28;20044;-61
2022/01/15 00:49:10;;;;;;;4.00;2.28;;;;;;;-148.16;100.00;58328.31;5062291;28;20044;-62
2022/01/15 00:51:56;;;;;;;3.80;1.95;;;;;;;-148.16;100.00;58328.31;5091408;28;20070;-61
2022/01/15 00:54:42;;;;;;;2.67;1.48;;;;;;;-148.16;100.00;58328.31;5091545;28;20040;-63
2022/01/15 00:57:28;;;;;;;4.60;2.00;;;;;;;-148.16;100.00;58328.31;5091119;28;20044;-61
2022/01/15 01:00:18;;;;;;;3.28;1.77;;;;;;;-148.16;100.00;58328.31;5091572;28;20047;-62
2022/01/15 01:03:03;;;;;;;4.57;1.73;;;;;;;-148.16;100.00;58328.31;5091073;28;20052;-61
2022/01/15 01:05:49;;;;;;;3.67;1.65;;;;;;;-148.16;100.00;58328.31;5076098;28;20052;-61
2022/01/15 01:08:35;;;;;;;3.65;2.00;;;;;;;-148.16;100.00;58328.31;5091433;28;20043;-60
2022/01/15 01:11:40;;;;;;;3.28;1.58;;;;;;;-148.16;100.00;58328.31;5091338;28;20487;-62
2022/01/15 01:21:01;;;;;;;4.50;1.92;;;;;;;-148.16;100.00;58328.31;5081791;28;20047;-62
2022/01/15 01:23:47;;;;;;;2.50;1.25;;;;;;;-148.16;100.00;58328.31;5091023;28;20055;-62
2022/01/15 01:26:43;;;;;;;4.85;2.47;;;;;;;-148.16;100.00;58328.31;5075934;28;20093;-62
2022/01/15 01:35:40;;;;;;;3.20;1.60;;;;;;;-148.16;100.00;58328.31;5090356;28;20411;-62
2022/01/15 01:38:31;;;;;;;2.90;1.40;;;;;;;-148.16;100.00;58328.31;5090759;28;20040;-61
2022/01/15 01:41:19;;;;;;;4.38;2.17;;;;;;;-148.16;100.00;58328.31;5090913;28;20040;-61
2022/01/15 01:44:07;;;;;;;4.05;1.48;;;;;;;-148.16;100.00;58328.31;5070851;28;20057;-62
2022/01/15 01:47:02;;;;;;;3.88;1.73;;;;;;;-148.16;100.00;58328.31;5089897;28;20048;-62
2022/01/15 01:49:48;;;;;;;4.63;1.83;;;;;;;-148.16;100.00;58328.31;5075415;28;20048;-62
2022/01/15 01:52:35;;;;;;;1.95;1.08;;;;;;;-148.16;100.00;58328.31;5069318;28;20040;-61
2022/01/15 01:55:23;;;;;;;3.13;1.40;;;;;;;-148.16;100.00;58328.31;5061149;28;20419;-61
2022/01/15 01:58:09;;;;;;;5.15;2.72;;;;;;;-148.16;100.00;58328.31;5061343;28;20056;-61
2022/01/15 02:00:55;;;;;;;5.15;2.67;;;;;;;-148.16;100.00;58328.31;5070334;28;20044;-62
2022/01/15 02:03:40;;;;;;;7.60;3.13;;;;;;;-148.16;100.00;58328.31;5070826;28;20056;-64
2022/01/15 02:06:26;;;;;;;6.15;2.22;;;;;;;-148.16;100.00;58328.31;5070640;28;20049;-62
2022/01/15 02:09:13;;;;;;;5.38;2.65;;;;;;;-148.16;100.00;58328.31;5070154;28;20480;-68
2022/01/15 02:11:58;;;;;;;5.00;2.47;;;;;;;-148.16;100.00;58328.31;5069669;28;20064;-62
2022/01/15 02:14:44;;;;;;;4.90;2.20;;;;;;;-148.16;100.00;58328.31;5070436;28;20040;-61
2022/01/15 02:17:30;;;;;;;3.92;2.03;;;;;;;-148.16;100.00;58328.31;5070575;28;20800;-61
2022/01/15 02:26:26;;;;;;;4.68;2.13;;;;;;;-148.16;100.00;58328.31;5069192;28;20052;-62
2022/01/15 02:29:12;;;;;;;3.90;1.90;;;;;;;-148.16;100.00;58328.31;5083250;28;20044;-64
2022/01/15 02:31:57;;;;;;;4.00;1.90;;;;;;;-148.16;100.00;58328.31;5047079;28;20053;-63
2022/01/15 02:34:43;;;;;;;3.80;1.70;;;;;;;-148.16;100.00;58328.31;5070395;28;20407;-63
2022/01/15 02:37:31;;;;;;;4.47;2.03;;;;;;;-148.16;100.00;58328.31;5070173;28;20479;-62
2022/01/15 02:40:17;;;;;;;4.03;2.28;;;;;;;-148.16;100.00;58328.31;5070016;28;20048;-61
2022/01/15 02:43:09;;;;;;;5.90;2.78;;;;;;;-148.16;100.00;58328.31;5069765;28;20407;-63
2022/01/15 02:45:57;;;;;;;5.97;2.70;;;;;;;-148.16;100.00;58328.31;5090417;28;20044;-63
2022/01/15 02:48:42;;;;;;;6.22;2.67;;;;;;;-148.16;100.00;58328.31;5093304;28;20052;-62
2022/01/15 02:51:31;;;;;;;5.97;2.42;;;;;;;-148.16;100.00;58328.31;5093890;28;20519;-62
2022/01/15 02:54:17;;;;;;;5.20;2.33;;;;;;;-148.16;100.00;58328.31;5093626;28;20474;-62
2022/01/15 02:57:06;;;;;;;6.05;3.00;;;;;;;-148.16;100.00;58328.31;5084557;28;20047;-61
2022/01/15 02:59:51;;;;;;;4.75;2.47;;;;;;;-148.16;100.00;58328.31;5094087;28;20060;-62
2022/01/15 03:02:37;;;;;;;6.80;2.88;;;;;;;-148.16;100.00;58328.31;5099885;28;20052;-62
2022/01/15 03:05:23;;;;;;;4.57;2.13;;;;;;;-148.16;100.00;58328.31;5093581;28;20040;-63
2022/01/15 03:08:09;;;;;;;4.03;2.03;;;;;;;-148.16;100.00;58328.31;5093738;28;20051;-62
2022/01/15 03:10:54;;;;;;;5.80;3.05;;;;;;;-148.16;100.00;58328.31;5094296;28;20048;-61
2022/01/15 03:13:42;;;;;;;7.18;2.95;;;;;;;-148.16;100.00;58328.31;5094615;28;20048;-62
2022/01/15 03:16:27;;;;;;;6.47;3.08;;;;;;;-148.16;100.00;58328.31;5093919;28;20056;-60
2022/01/15 03:19:13;;;;;;;7.15;3.17;;;;;;;-148.16;100.00;58328.31;5073412;28;20040;-60
2022/01/15 03:21:59;;;;;;;5.80;2.58;;;;;;;-148.16;100.00;58328.31;5081118;28;20052;-60
2022/01/15 03:24:44;;;;;;;6.32;2.92;;;;;;;-148.16;100.00;58328.31;5060804;28;20045;-60
2022/01/15 03:27:30;;;;;;;6.20;2.45;;;;;;;-148.16;100.00;58328.31;5065881;28;20036;-60
2022/01/15 03:30:16;;;;;;;6.40;2.78;;;;;;;-148.16;100.00;58328.31;5077084;28;20391;-61
2022/01/15 03:33:01;;;;;;;6.28;3.05;;;;;;;-148.16;100.00;58328.31;5073688;28;20048;-61
2022/01/15 03:35:47;;;;;;;6.22;2.63;;;;;;;-148.16;100.00;58328.31;5079782;28;20048;-61
2022/01/15 03:38:33;;;;;;;4.70;2.22;;;;;;;-148.16;100.00;58328.31;5094048;28;20048;-61
2022/01/15 03:41:19;;;;;;;4.82;2.00;;;;;;;-148.16;100.00;58328.31;5093781;28;20407;-61
2022/01/15 03:44:05;;;;;;;4.63;2.20;;;;;;;-148.16;100.00;58328.31;5084846;28;20055;-63
2022/01/15 03:46:50;;;;;;;6.53;2.95;;;;;;;-148.16;100.00;58328.31;5093737;28;20036;-61
2022/01/15 03:49:36;;;;;;;6.40;3.05;;;;;;;-148.16;100.00;58328.31;5093847;28;20044;-61
2022/01/15 03:52:21;;;;;;;4.80;2.25;;;;;;;-148.16;100.00;58328.31;5093431;28;20052;-60
2022/01/15 03:55:09;;;;;;;5.72;2.85;;;;;;;-148.16;100.00;58328.31;5093752;28;20052;-60
2022/01/15 03:57:54;;;;;;;6.28;3.20;;;;;;;-148.16;100.00;58328.31;5077926;28;20048;-61
2022/01/15 04:00:40;;;;;;;5.20;2.45;;;;;;;-148.16;100.00;58328.31;5087891;28;20036;-61
2022/01/15 04:03:26;;;;;;;7.90;3.03;;;;;;;-148.16;100.00;58328.31;5083203;28;20044;-61
2022/01/15 04:06:12;;;;;;;6.05;3.58;;;;;;;-148.16;100.00;58328.31;5077643;28;20052;-60
2022/01/15 04:08:59;;;;;;;8.07;3.00;;;;;;;-148.16;100.00;58328.31;5093244;28;20471;-67
2022/01/15 04:11:45;;;;;;;5.45;3.03;;;;;;;-148.16;100.00;58328.31;5089177;28;20041;-64
2022/01/15 04:14:31;;;;;;;5.70;3.03;;;;;;;-148.16;100.00;58328.31;5066565;28;20048;-61
2022/01/15 04:17:17;;;;;;;4.65;1.73;;;;;;;-148.16;100.00;58328.31;5037849;28;20477;-60
2022/01/15 04:20:04;;;;;;;8.38;3.92;;;;;;;-148.16;100.00;58328.31;5032413;28;20050;-60
2022/01/15 04:22:53;;;;;;;6.07;2.35;;;;;;;-148.16;100.00;58328.31;5032632;28;20072;-61
2022/01/15 04:25:40;;;;;;;7.10;2.38;;;;;;;-148.16;100.00;58328.31;5032953;28;20393;-61
2022/01/15 04:28:27;;;;;;;6.60;3.25;;;;;;;-148.16;100.00;58328.31;5039021;28;20400;-61
2022/01/15 04:31:12;;;;;;;5.63;2.25;;;;;;;-148.16;100.00;58328.31;5032944;28;20075;-61
2022/01/15 04:33:58;;;;;;;4.43;1.90;;;;;;;-148.16;100.00;58328.31;5032859;28;20046;-60
2022/01/15 04:36:45;;;;;;;4.80;2.42;;;;;;;-148.16;100.00;58328.31;5032760;28;20049;-60
2022/01/15 04:39:31;;;;;;;4.78;2.63;;;;;;;-148.16;100.00;58328.31;5065557;28;20049;-59
2022/01/15 04:42:20;;;;;;;7.38;2.42;;;;;;;-148.16;100.00;58328.31;5032659;28;20045;-61
2022/01/15 04:45:07;;;;;;;6.15;2.83;;;;;;;-148.16;100.00;58328.31;5033044;28;20053;-62
2022/01/15 04:47:53;;;;;;;5.82;2.33;;;;;;;-148.16;100.00;58328.31;5057501;28;20041;-60
2022/01/15 04:50:39;;;;;;;4.68;2.47;;;;;;;-148.16;100.00;58328.31;5052573;28;20040;-61
2022/01/15 04:53:24;;;;;;;4.20;2.25;;;;;;;-148.16;100.00;58328.31;5052121;28;20053;-61
2022/01/15 04:56:10;;;;;;;6.47;2.92;;;;;;;-148.16;100.00;58328.31;5052510;28;20044;-61
2022/01/15 04:58:56;;;;;;;5.10;2.45;;;;;;;-148.16;100.00;58328.31;5052203;28;20368;-61
2022/01/15 05:01:42;;;;;;;4.57;2.42;;;;;;;-148.16;100.00;58328.31;5052052;28;20048;-63
2022/01/15 05:04:28;;;;;;;5.03;2.38;;;;;;;-148.16;100.00;58328.31;5052331;28;20097;-62
2022/01/15 05:07:14;;;;;;;6.90;2.70;;;;;;;-148.16;100.00;58328.31;5051198;28;20041;-62
2022/01/15 05:10:00;;;;;;;7.07;2.33;;;;;;;-148.16;100.00;58328.31;5051240;28;20049;-61
2022/01/15 05:12:47;;;;;;;6.43;3.03;;;;;;;-148.16;100.00;58328.31;5051166;28;20040;-60
2022/01/15 05:15:33;;;;;;;4.57;2.33;;;;;;;-148.16;100.00;58328.31;5053886;28;20037;-61
2022/01/15 05:18:19;;;;;;;5.32;2.40;;;;;;;-148.16;100.00;58328.31;5092181;28;20052;-60
2022/01/15 05:21:05;;;;;;;3.92;2.08;;;;;;;-148.16;100.00;58328.31;5092326;28;20403;-61
2022/01/15 05:23:51;;;;;;;4.05;1.90;;;;;;;-148.16;100.00;58328.31;5092148;28;20055;-62
2022/01/15 05:26:36;;;;;;;3.95;2.20;;;;;;;-148.16;100.00;58328.31;5092171;28;20476;-61
2022/01/15 05:29:22;;;;;;;4.57;2.17;;;;;;;-148.16;100.00;58328.31;5092272;28;20048;-61
2022/01/15 05:32:08;;;;;;;7.78;3.10;;;;;;;-148.16;100.00;58328.31;5092263;28;20415;-62
2022/01/15 05:34:54;;;;;;;4.45;2.30;;;;;;;-148.16;100.00;58328.31;5091136;28;20047;-61
2022/01/15 05:37:40;;;;;;;7.10;3.53;;;;;;;-148.16;100.00;58328.31;5092086;28;20048;-61
2022/01/15 05:40:27;;;;;;;4.78;2.25;;;;;;;-148.16;100.00;58328.31;5092094;28;20040;-61
2022/01/15 05:43:12;;;;;;;7.45;2.28;;;;;;;-148.16;100.00;58328.31;5090946;28;20043;-62
2022/01/15 05:45:58;;;;;;;8.13;3.08;;;;;;;-148.16;100.00;58328.31;5091764;28;20056;-62
2022/01/15 05:48:44;;;;;;;6.10;2.40;;;;;;;-148.16;100.00;58328.31;5090689;28;20040;-63
2022/01/15 05:51:31;;;;;;;7.68;2.55;;;;;;;-148.16;100.00;58328.31;5090823;28;20043;-62
2022/01/15 05:54:16;;;;;;;6.10;2.88;;;;;;;-148.16;100.00;58328.31;5090117;28;20048;-61
2022/01/15 05:57:02;;;;;;;6.63;2.80;;;;;;;-148.16;100.00;58328.31;5090329;28;20040;-60
2022/01/15 05:59:51;;;;;;;6.97;3.42;;;;;;;-148.16;100.00;58328.31;5090665;28;20475;-59
2022/01/15 06:02:38;;;;;;;5.45;2.65;;;;;;;-148.16;100.00;58328.31;5090611;28;20484;-61
2022/01/15 06:05:24;;;;;;;6.53;2.90;;;;;;;-148.16;100.00;58328.31;5089866;28;20073;-59
2022/01/15 06:08:09;;;;;;;7.85;3.10;;;;;;;-148.16;100.00;58328.31;5070417;28;20045;-60
2022/01/15 06:10:55;;;;;;;4.60;2.55;;;;;;;-148.16;100.00;58328.31;5070122;28;20044;-61
2022/01/15 06:13:40;;;;;;;4.90;2.63;;;;;;;-148.16;100.00;58328.31;5070245;28;20491;-60
2022/01/15 06:16:26;;;;;;;6.03;2.55;;;;;;;-148.16;100.00;58328.31;5070680;28;20048;-60
2022/01/15 06:19:12;;;;;;;3.90;1.92;;;;;;;-148.16;100.00;58328.31;5070305;28;20483;-61
2022/01/15 06:21:58;;;;;;;6.13;2.60;;;;;;;-148.16;100.00;58328.31;5072511;28;20052;-59
2022/01/15 06:24:45;;;;;;;5.70;2.28;;;;;;;-148.16;100.00;58328.31;5074252;28;20041;-62
2022/01/15 06:27:32;;;;;;;7.45;2.58;;;;;;;-148.16;100.00;58328.31;5073911;28;20052;-60
2022/01/15 06:30:18;;;;;;;7.13;2.20;;;;;;;-148.16;100.00;58328.31;5074186;28;20049;-60
2022/01/15 06:33:04;;;;;;;11.38;2.70;;;;;;;-148.16;100.00;58328.31;5073608;28;20048;-60
2022/01/15 06:35:50;;;;;;;6.82;2.80;;;;;;;-148.16;100.00;58328.31;5073738;28;20044;-60
2022/01/15 06:38:36;;;;;;;6.07;2.30;;;;;;;-148.16;100.00;58328.31;5093217;28;20041;-59
2022/01/15 06:41:22;;;;;;;5.47;2.38;;;;;;;-148.16;100.00;58328.31;5073938;28;20044;-51
2022/01/15 06:44:08;;;;;;;6.82;3.05;;;;;;;-148.16;100.00;58328.31;5081560;28;20044;-63
2022/01/15 06:46:54;;;;;;;7.75;2.50;;;;;;;-148.16;100.00;58328.31;5087183;28;20048;-63
2022/01/15 06:49:41;;;;;;;7.50;3.47;;;;;;;-148.16;100.00;58328.31;5066880;28;20045;-63
2022/01/15 06:52:27;;;;;;;6.40;3.10;;;;;;;-148.16;100.00;58328.31;5087459;28;20048;-63
2022/01/15 06:55:13;;;;;;;8.23;2.50;;;;;;;-148.16;100.00;58328.31;5083078;28;20502;-63
2022/01/15 06:57:58;;;;;;;3.60;2.00;;;;;;;-148.16;100.00;58328.31;5064983;28;20475;-63
2022/01/15 07:00:45;;;;;;;4.70;2.45;;;;;;;-148.16;100.00;58328.31;5084897;28;20173;-62
2022/01/15 07:03:30;;;;;;;9.45;2.72;;;;;;;-148.16;100.00;58328.31;5066247;28;20045;-63
2022/01/15 07:06:16;;;;;;;8.85;2.63;;;;;;;-148.16;100.00;58328.31;5073772;28;20044;-67
2022/01/15 07:09:03;;;;;;;5.40;2.13;;;;;;;-148.16;100.00;58328.31;5059167;28;20048;-70
2022/01/15 07:11:48;;;;;;;5.40;2.50;;;;;;;-148.16;100.00;58328.31;5074370;28;20052;-68
2022/01/15 07:14:34;;;;;;;4.93;2.47;;;;;;;-148.16;100.00;58328.31;5059013;28;20049;-69
2022/01/15 07:17:21;;;;;;;6.80;2.33;;;;;;;-148.16;100.00;58328.31;5047805;28;20045;-72
2022/01/15 07:20:12;;;;;;;6.50;3.30;;;;;;;-148.16;100.00;58328.31;5064723;28;20048;-70
2022/01/15 07:22:59;;;;;;;6.43;2.60;;;;;;;-148.16;100.00;58328.31;5064627;28;20044;-71
2022/01/15 07:25:45;;;;;;;6.95;2.70;;;;;;;-148.16;100.00;58328.31;5064241;28;20048;-72
2022/01/15 07:28:31;;;;;;;4.15;2.47;;;;;;;-148.16;100.00;58328.31;5074982;28;20040;-73
2022/01/15 07:31:17;;;;;;;6.43;3.00;;;;;;;-148.16;100.00;58328.31;5073414;28;20040;-72
2022/01/15 07:34:03;;;;;;;7.28;2.67;;;;;;;-148.16;100.00;58328.31;5073620;28;20041;-70
2022/01/15 07:40:06;;;;;;;6.85;2.92;;;;;;;-148.16;100.00;58328.31;5086811;28;20041;-75
2022/01/15 07:42:52;;;;;;;7.88;3.33;;;;;;;-148.16;100.00;58328.31;5073564;28;20040;-66
2022/01/15 07:45:38;;;;;;;8.48;3.65;;;;;;;-148.16;100.00;58328.31;5079785;28;20048;-66
2022/01/15 07:48:24;;;;;;;9.80;3.20;;;;;;;-148.16;100.00;58328.31;5096895;28;20052;-64
2022/01/15 07:51:10;;;;;;;9.45;4.40;;;;;;;-148.16;100.00;58328.31;5072264;28;20040;-65
2022/01/15 07:53:56;;;;;;;8.15;3.70;;;;;;;-148.16;100.00;58328.31;5078238;28;20036;-65
2022/01/15 07:56:43;;;;;;;8.85;3.42;;;;;;;-148.16;100.00;58328.31;5065021;28;20040;-66
2022/01/15 08:01:17;;;;;;;8.73;3.70;;;;;;;6.17;65.15;100022.72;5053266;28;20661;-67
2022/01/15 08:04:03;;;;;;;7.50;3.97;;;;;;;6.15;63.90;100014.13;5056541;28;20064;-67
2022/01/15 08:06:49;;;;;;;8.23;3.47;;;;;;;6.97;66.40;100022.88;5048592;28;20048;-46
2022/01/15 08:09:36;;;;;;;7.78;3.85;;;;;;;7.91;59.08;100024.81;5049008;28;20056;-48
2022/01/15 08:12:22;;;;;;;8.05;3.80;;;;;;;8.53;57.91;100018.97;5047480;28;20550;-51
2022/01/15 08:15:08;;;;;;;8.63;3.55;;;;;;;9.68;58.99;100022.03;5064689;28;20043;-46
2022/01/15 08:17:54;;;;;;;8.50;3.17;;;;;;;10.55;52.41;100030.31;5067852;28;20380;-46
2022/01/15 08:20:39;;;;;;;7.70;3.38;;;;;;;9.05;54.27;100036.94;5069007;28;20055;-47
2022/01/15 08:23:25;;;;;;;5.03;2.92;;;;;;;10.87;51.47;100016.53;5060980;28;20056;-51
2022/01/15 08:26:11;;;;;;;7.70;3.38;;;;;;;11.44;47.91;100025.91;5048899;28;20460;-55
2022/01/15 08:28:57;;;;;;;7.28;3.75;;;;;;;10.63;49.74;100031.69;5045037;28;20048;-60
2022/01/15 08:31:43;;;;;;;7.25;3.22;;;;;;;9.81;50.46;100027.56;5047742;28;20048;-51
2022/01/15 08:34:28;;;;;;;6.60;3.50;;;;;;;9.41;50.65;100014.50;5060253;28;20052;-51
2022/01/15 08:37:14;;;;;;;8.38;3.38;;;;;;;9.40;53.48;99991.03;5058399;28;20052;-60
2022/01/15 08:40:00;;;;;;;6.88;3.22;;;;;;;10.64;54.30;100029.00;5047509;28;20437;-58
2022/01/15 08:42:46;;;;;;;5.50;3.40;;;;;;;11.59;47.62;100028.66;5061621;28;20060;-50
2022/01/15 08:45:32;;;;;;;7.60;3.22;;;;;;;11.31;47.54;100030.09;5047893;28;20060;-54
2022/01/15 08:48:19;;;;;;;6.07;3.50;;;;;;;11.64;45.19;100029.25;5046988;28;20052;-53
2022/01/15 08:51:05;;;;;;;5.70;3.15;;;;;;;11.70;46.64;100028.09;5027167;28;20073;-56
2022/01/15 08:53:51;;;;;;;8.98;3.38;;;;;;;11.37;46.09;100028.94;5028499;28;20056;-55
2022/01/15 08:56:37;;;;;;;8.00;3.40;;;;;;;11.39;45.79;100027.91;5028088;28;20053;-55
2022/01/15 08:59:27;;;;;;;8.43;3.92;;;;;;;11.43;46.06;100026.84;5020556;28;20061;-53
2022/01/15 09:02:13;;;;;;;6.95;3.55;;;;;;;10.62;50.07;100025.63;5035198;28;20516;-51
2022/01/15 09:04:59;;;;;;;7.03;3.38;;;;;;;10.43;48.12;100031.69;5047162;28;20056;-58
2022/01/15 09:07:45;;;;;;;6.30;3.45;;;;;;;9.31;50.32;100031.50;5045619;28;20048;-56
2022/01/15 09:10:31;;;;;;;5.00;3.22;;;;;;;10.70;50.08;100026.09;5049278;28;20060;-56
2022/01/15 09:13:17;;;;;;;8.07;3.08;;;;;;;12.63;47.38;100024.81;5038519;28;20052;-55
2022/01/15 09:16:02;;;;;;;6.95;2.63;;;;;;;13.60;44.81;100023.63;5019402;28;20064;-51
2022/01/15 09:18:48;;;;;;;6.22;3.40;;;;;;;13.67;41.43;100024.94;5013332;28;20053;-52
2022/01/15 09:21:34;;;;;;;7.63;3.50;;;;;;;12.59;45.13;100022.44;5032136;28;20065;-53
2022/01/15 09:24:20;;;;;;;7.95;3.10;;;;;;;12.42;46.42;100027.72;5014973;28;20065;-54
2022/01/15 09:30:12;;;;;;;6.93;2.83;;;;;;;12.77;43.12;100046.84;5049566;28;20381;-56
2022/01/15 09:32:58;;;;;;;7.20;3.28;;;;;;;10.72;45.87;100034.72;5039819;28;20367;-54
2022/01/15 09:35:44;;;;;;;6.38;2.65;;;;;;;10.38;44.89;100038.94;5066131;28;20059;-57
2022/01/15 09:38:30;;;;;;;10.50;2.90;;;;;;;10.69;47.07;100028.78;5053231;28;20072;-49
2022/01/15 09:41:16;;;;;;;3.78;2.30;;;;;;;10.52;45.61;100021.75;5048050;28;20092;-55
2022/01/15 09:44:02;;;;;;;6.05;2.88;;;;;;;11.78;45.67;100027.69;5038996;28;20048;-59
2022/01/15 09:46:49;;;;;;;5.80;2.72;;;;;;;12.12;41.71;100033.75;5029228;28;20071;-56
2022/01/15 09:49:37;;;;;;;4.72;3.17;;;;;;;11.85;43.83;100028.19;5049887;28;20120;-58
2022/01/15 09:52:23;;;;;;;6.25;3.13;;;;;;;12.33;41.41;100025.63;5035739;28;20060;-56
2022/01/15 09:55:11;;;;;;;4.85;3.00;;;;;;;11.03;44.89;100015.78;5032887;28;20056;-56
2022/01/15 09:57:57;;;;;;;6.35;2.55;;;;;;;10.62;47.69;100030.88;5045244;28;20048;-56
2022/01/15 10:00:44;;;;;;;6.75;2.65;;;;;;;12.66;43.30;100029.06;5037519;28;20056;-55
2022/01/15 10:03:30;;;;;;;10.75;3.10;;;;;;;11.92;43.74;100025.16;5044698;28;20523;-55
2022/01/15 10:06:16;;;;;;;5.03;2.67;;;;;;;11.33;44.79;100028.22;5033436;28;20415;-52
2022/01/15 10:09:07;;;;;;;6.43;2.60;;;;;;;10.61;46.07;100021.28;5032922;28;20049;-57
2022/01/15 10:11:53;;;;;;;7.55;2.83;;;;;;;11.99;43.09;100023.06;5033836;28;20052;-59
2022/01/15 10:14:41;;;;;;;3.25;2.10;;;;;;;11.51;43.28;100020.31;5024960;28;20041;-60
2022/01/15 10:17:30;;;;;;;5.78;2.53;;;;;;;11.74;44.68;100010.38;5033848;28;20144;-58
2022/01/15 10:20:18;;;;;;;3.80;2.40;;;;;;;12.08;42.57;100008.56;5033808;28;20056;-57
2022/01/15 10:23:15;;;;;;;5.80;2.85;;;;;;;9.79;47.06;100018.91;5037756;28;20068;-58
2022/01/15 10:26:18;;;;;;;6.68;2.88;;;;;;;10.35;46.81;100018.13;5033824;28;20053;-57
2022/01/15 10:29:06;;;;;;;5.80;3.10;;;;;;;9.01;49.52;100027.50;5025660;28;20099;-55
2022/01/15 10:31:52;;;;;;;5.60;2.78;;;;;;;9.18;48.57;100005.03;5035582;28;20515;-55
2022/01/15 10:34:38;;;;;;;6.18;2.85;;;;;;;9.98;48.24;100003.25;5013911;28;20053;-50
2022/01/15 10:37:38;;;;;;;5.88;2.40;;;;;;;9.60;51.14;99997.97;5017598;28;20053;-51
2022/01/15 10:40:45;;;;;;;8.23;3.63;;;;;;;9.82;47.06;100007.47;5051338;28;20056;-57
2022/01/15 10:43:33;;;;;;;5.80;3.00;;;;;;;10.61;45.86;99987.22;5024323;28;20056;-58
2022/01/15 10:46:32;;;;;;;5.80;2.80;;;;;;;12.29;42.69;99984.69;5033419;28;20048;-60
2022/01/15 10:49:22;;;;;;;6.60;2.90;;;;;;;10.56;44.83;99992.69;5032769;28;20049;-60
2022/01/15 10:52:24;;;;;;;5.88;2.80;;;;;;;10.62;46.22;99985.44;5033276;28;20056;-62
2022/01/15 10:55:12;;;;;;;5.43;2.42;;;;;;;10.41;45.47;99985.56;5033343;28;20116;-61
2022/01/15 10:58:00;;;;;;;8.73;2.60;;;;;;;10.83;48.83;99991.41;5032293;28;20064;-50
2022/01/15 11:00:48;;;;;;;8.00;2.50;;;;;;;12.11;43.89;99991.81;5033657;28;20072;-56
2022/01/15 11:03:40;;;;;;;4.72;2.70;;;;;;;9.45;47.71;99981.22;5033191;28;20052;-62
2022/01/15 11:06:37;;;;;;;7.05;2.88;;;;;;;8.68;49.65;99976.56;5032023;28;20136;-62
2022/01/15 11:09:35;;;;;;;9.45;2.65;;;;;;;10.46;52.21;99973.09;5036828;28;20611;-63
2022/01/15 11:12:27;;;;;;;6.80;2.38;;;;;;;8.60;54.15;99971.66;5030838;28;20056;-62
2022/01/15 11:15:14;;;;;;;5.75;2.60;;;;;;;8.85;55.55;99961.94;5030140;28;20060;-62
2022/01/15 11:18:02;;;;;;;23.45;11.77;;;;;;;10.42;49.74;99953.19;5031899;28;20060;-62
2022/01/15 11:20:51;;;;;;;5.43;3.10;;;;;;;10.69;46.71;99971.97;5031958;28;20049;-63
2022/01/15 11:23:38;;;;;;;10.50;4.53;;;;;;;8.86;51.53;99964.50;5032052;28;20056;-62
2022/01/15 11:26:27;;;;;;;5.25;3.03;;;;;;;8.32;52.65;99969.31;5022885;28;20072;-62
2022/01/15 11:29:13;;;;;;;23.55;9.85;;;;;;;8.25;54.44;99963.47;5031389;28;20113;-64
2022/01/15 11:32:00;;;;;;;8.25;4.30;;;;;;;8.61;57.14;99962.94;5031605;28;20064;-63
2022/01/15 11:35:19;;;;;;;6.90;3.15;;;;;;;7.76;61.91;99967.06;5031437;28;20521;-65
2022/01/15 11:38:05;;;;;;;4.97;2.88;;;;;;;7.31;61.56;99937.44;5012689;28;20064;-64
2022/01/15 11:40:53;;;;;;;5.72;2.92;;;;;;;7.32;54.92;99958.22;5031076;28;20044;-63
2022/01/15 11:43:40;;;;;;;4.80;2.50;;;;;;;8.82;52.27;99949.03;5031554;28;20520;-63
2022/01/15 11:46:29;;;;;;;7.10;2.50;;;;;;;9.68;50.10;99940.03;5021880;28;20053;-64
2022/01/15 11:49:33;;;;;;;6.30;2.53;;;;;;;9.13;49.89;99952.94;5030791;28;20056;-63
2022/01/15 11:52:21;;;;;;;6.00;2.60;;;;;;;8.57;55.63;99955.28;5030709;28;20060;-65
2022/01/15 11:55:10;;;;;;;4.82;2.58;;;;;;;8.29;53.59;99954.59;5032572;28;20056;-64
2022/01/15 11:57:58;;;;;;;7.35;3.05;;;;;;;8.36;52.01;99937.78;5025709;28;20057;-63
2022/01/15 12:00:44;;;;;;;4.85;2.22;;;;;;;8.93;59.44;99944.19;5028324;28;20084;-64
2022/01/15 12:03:39;;;;;;;5.45;2.72;;;;;;;8.45;60.57;99944.41;5035472;28;20056;-64
2022/01/15 12:06:24;;;;;;;5.82;2.42;;;;;;;8.85;52.46;99944.53;5030039;28;20084;-62
2022/01/15 12:09:36;;;;;;;6.15;2.50;;;;;;;9.91;64.79;99940.75;5036228;28;20053;-62
2022/01/15 12:12:45;;;;;;;5.55;2.90;;;;;;;9.92;65.33;99935.44;5030466;28;20068;-65
2022/01/15 12:15:30;;;;;;;7.88;2.28;;;;;;;9.88;52.33;99912.09;5009232;28;20048;-64
2022/01/15 12:18:19;;;;;;;7.63;2.42;;;;;;;9.42;55.82;99934.25;5009708;28;20045;-62
2022/01/15 12:21:07;;;;;;;3.95;1.80;;;;;;;9.44;48.95;99906.25;4995766;28;20445;-61
2022/01/15 12:23:53;;;;;;;4.30;2.25;;;;;;;10.74;52.25;99918.47;5009978;28;20516;-65
2022/01/15 12:26:59;;;;;;;4.20;2.00;;;;;;;11.30;46.65;99919.06;5009889;28;20056;-62
2022/01/15 12:29:44;;;;;;;6.55;2.38;;;;;;;12.53;42.28;99908.00;5007791;28;20049;-61
2022/01/15 12:32:35;;;;;;;5.20;2.00;;;;;;;10.36;45.11;99909.81;5012986;28;20561;-61
2022/01/15 12:35:24;;;;;;;8.05;2.38;;;;;;;11.00;42.95;99914.50;5008784;28;20057;-62
2022/01/15 12:38:15;;;;;;;6.63;2.10;;;;;;;10.87;43.18;99910.84;5012164;28;20065;-64
2022/01/15 12:41:04;;;;;;;4.15;1.80;;;;;;;10.29;43.60;99911.03;5006775;28;20052;-63
2022/01/15 12:43:50;;;;;;;6.28;1.90;;;;;;;12.13;43.48;99903.25;5007531;28;20052;-62
2022/01/15 12:46:36;;;;;;;6.03;2.03;;;;;;;12.89;41.79;99888.31;4988741;28;20076;-59
2022/01/15 12:49:21;;;;;;;5.25;2.15;;;;;;;13.63;40.05;99873.34;4993393;28;20156;-58
2022/01/15 12:52:25;;;;;;;4.30;2.15;;;;;;;13.90;39.56;99872.53;5016728;28;20060;-60
2022/01/15 12:55:11;;;;;;;6.07;2.08;;;;;;;12.51;37.64;99886.22;5033879;28;20524;-53
2022/01/15 12:57:57;;;;;;;5.13;1.95;;;;;;;11.60;41.81;99880.75;5039678;28;20488;-59
2022/01/15 13:00:43;;;;;;;4.00;1.83;;;;;;;13.17;38.51;99870.03;5034547;28;20413;-59
2022/01/15 13:03:31;;;;;;;4.05;2.08;;;;;;;13.54;41.40;99867.75;5041003;28;20052;-70
2022/01/15 13:06:24;;;;;;;6.85;1.85;;;;;;;11.89;39.09;99880.91;5034413;28;20064;-62
2022/01/15 13:09:10;;;;;;;6.10;1.95;;;;;;;11.62;43.57;99875.44;5031455;28;20060;-60
2022/01/15 13:11:59;;;;;;;3.10;1.58;;;;;;;11.75;40.48;99873.78;5039568;28;20059;-63
2022/01/15 13:14:45;;;;;;;5.55;1.90;;;;;;;10.53;45.66;99864.44;5032578;28;20064;-64
2022/01/15 13:17:31;;;;;;;4.80;1.45;;;;;;;11.97;38.55;99869.09;5033547;28;20064;-60
2022/01/15 13:20:34;;;;;;;4.85;2.03;;;;;;;9.93;41.71;99852.53;5033558;28;20444;-60